createdAt,value
2023-02-03T00:01:58.308Z,101605.47
2023-02-03T00:04:25.447Z,101601.16
2023-02-03T00:06:52.010Z,101606.34
2023-02-03T00:09:19.938Z,101604.63
2023-02-03T00:11:46.935Z,101608.06
2023-02-03T00:14:13.442Z,101593.38
2023-02-03T00:16:40.076Z,101595.97
2023-02-03T00:19:07.113Z,101588.19
2023-02-03T00:21:34.090Z,101596.00
2023-02-03T00:24:00.583Z,101603.75
2023-02-03T00:26:30.222Z,101589.91
2023-02-03T00:28:59.870Z,101601.16
2023-02-03T00:31:28.642Z,101596.84
2023-02-03T00:33:57.680Z,101596.00
2023-02-03T00:36:25.615Z,101589.94
2023-02-03T00:38:52.508Z,101585.59
2023-02-03T00:41:21.061Z,101575.22
2023-02-03T00:43:48.502Z,101579.47
2023-02-03T00:46:15.696Z,101568.22
2023-02-03T00:48:42.776Z,101567.34
2023-02-03T00:51:09.280Z,101565.59
2023-02-03T00:53:36.271Z,101569.94
2023-02-03T00:56:03.469Z,101568.19
2023-02-03T00:58:29.931Z,101572.50
2023-02-03T01:00:57.233Z,101567.31
2023-02-03T01:03:25.030Z,101577.66
2023-02-03T01:05:51.906Z,101577.66
2023-02-03T01:08:19.670Z,101583.69
2023-02-03T01:10:46.397Z,101593.22
2023-02-03T01:13:13.127Z,101587.16
2023-02-03T01:15:45.766Z,101574.19
2023-02-03T01:18:12.720Z,101567.28
2023-02-03T01:20:39.856Z,101566.41
2023-02-03T01:23:06.430Z,101554.31
2023-02-03T01:25:35.866Z,101552.63
2023-02-03T01:28:02.452Z,101531.00
2023-02-03T01:30:29.655Z,101524.94
2023-02-03T01:32:56.309Z,101516.31
2023-02-03T01:35:22.763Z,101505.94
2023-02-03T01:37:49.416Z,101493.00
2023-02-03T01:40:16.402Z,101506.84
2023-02-03T01:42:42.926Z,101515.47
2023-02-03T01:45:23.985Z,101517.22
2023-02-03T01:48:10.740Z,101524.13
2023-02-03T01:50:57.408Z,101512.03
2023-02-03T01:53:44.480Z,101499.03
2023-02-03T01:56:36.391Z,101493.88
2023-02-03T01:59:24.462Z,101517.19
2023-02-03T02:02:12.897Z,101503.34
2023-02-03T02:05:03.361Z,101484.31
2023-02-03T02:07:31.802Z,101490.34
2023-02-03T02:09:59.476Z,101490.34
2023-02-03T02:12:26.293Z,101485.09
2023-02-03T02:14:53.280Z,101486.84
2023-02-03T02:17:57.535Z,101499.81
2023-02-03T02:20:48.961Z,101487.75
2023-02-03T02:23:41.524Z,101489.47
2023-02-03T02:26:37.236Z,101488.63
2023-02-03T02:29:21.109Z,101479.09
2023-02-03T02:31:59.821Z,101490.38
2023-02-03T02:34:39.313Z,101508.53
2023-02-03T02:37:24.508Z,101499.91
2023-02-03T02:40:02.771Z,101499.06
2023-02-03T02:42:46.587Z,101493.88
2023-02-03T02:45:39.858Z,101481.81
2023-02-03T02:48:16.391Z,101494.78
2023-02-03T02:50:46.673Z,101498.28
2023-02-03T02:53:15.395Z,101518.16
2023-02-03T02:55:46.434Z,101514.69
2023-02-03T02:58:16.491Z,101519.00
2023-02-03T03:00:45.688Z,101520.72
2023-02-03T03:03:15.281Z,101524.19
2023-02-03T03:05:48.662Z,101535.41
2023-02-03T03:08:22.990Z,101531.97
2023-02-03T03:10:51.740Z,101541.50
2023-02-03T03:13:25.847Z,101549.28
2023-02-03T03:15:56.432Z,101555.34
2023-02-03T03:18:44.732Z,101557.94
2023-02-03T03:21:15.814Z,101562.25
2023-02-03T03:23:47.009Z,101571.75
2023-02-03T03:26:21.223Z,101582.16
2023-02-03T03:28:51.888Z,101569.19
2023-02-03T03:31:19.945Z,101578.69
2023-02-03T03:33:48.591Z,101577.88
2023-02-03T03:36:29.522Z,101574.41
2023-02-03T03:39:03.738Z,101572.69
2023-02-03T03:41:41.254Z,101574.41
2023-02-03T03:44:13.165Z,101562.31
2023-02-03T03:46:49.646Z,101576.19
2023-02-03T03:49:19.275Z,101565.81
2023-02-03T03:52:04.533Z,101557.19
2023-02-03T03:54:32.689Z,101554.53
2023-02-03T03:57:15.210Z,101545.94
2023-02-03T03:59:46.431Z,101555.44
2023-02-03T04:02:14.824Z,101552.88
2023-02-03T04:04:43.887Z,101554.59
2023-02-03T04:07:12.307Z,101543.34
2023-02-03T04:09:39.988Z,101540.78
2023-02-03T04:12:16.382Z,101538.19
2023-02-03T04:14:43.080Z,101538.19
2023-02-03T04:17:09.899Z,101538.19
2023-02-03T04:19:36.359Z,101539.03
2023-02-03T04:22:02.826Z,101540.78
2023-02-03T04:24:29.842Z,101526.09
2023-02-03T04:26:56.587Z,101519.19
2023-02-03T04:29:23.106Z,101514.00
2023-02-03T04:31:49.890Z,101523.50
2023-02-03T04:34:16.695Z,101527.81
2023-02-03T04:36:43.229Z,101535.59
2023-02-03T04:39:09.966Z,101534.72
2023-02-03T04:41:37.153Z,101547.69
2023-02-03T04:44:04.056Z,101553.72
2023-02-03T04:46:30.548Z,101552.88
2023-02-03T04:48:57.923Z,101544.22
2023-02-03T04:51:24.612Z,101555.50
2023-02-03T04:53:51.073Z,101554.63
2023-02-03T04:56:18.028Z,101547.72
2023-02-03T04:58:44.507Z,101541.66
2023-02-03T05:01:11.555Z,101537.34
2023-02-03T05:03:38.167Z,101549.44
2023-02-03T05:06:05.689Z,101543.41
2023-02-03T05:08:33.680Z,101547.72
2023-02-03T05:11:02.124Z,101547.72
2023-02-03T05:13:29.508Z,101542.53
2023-02-03T05:15:56.217Z,101551.16
2023-02-03T05:18:22.987Z,101558.09
2023-02-03T05:20:49.637Z,101553.75
2023-02-03T05:23:16.318Z,101545.09
2023-02-03T05:25:44.605Z,101544.22
2023-02-03T05:28:11.283Z,101545.09
2023-02-03T05:30:38.086Z,101552.88
2023-02-03T05:33:04.522Z,101552.88
2023-02-03T05:35:31.405Z,101554.59
2023-02-03T05:37:59.405Z,101545.09
2023-02-03T05:40:45.347Z,101554.59
2023-02-03T05:43:12.153Z,101539.91
2023-02-03T05:45:38.912Z,101524.34
2023-02-03T05:48:07.276Z,101529.53
2023-02-03T05:50:38.110Z,101526.09
2023-02-03T05:53:09.570Z,101524.34
2023-02-03T05:55:36.788Z,101520.91
2023-02-03T05:58:04.588Z,101534.72
2023-02-03T06:00:30.995Z,101526.94
2023-02-03T06:03:02.179Z,101533.00
2023-02-03T06:05:30.319Z,101532.13
2023-02-03T06:07:56.885Z,101522.63
2023-02-03T06:10:23.948Z,101507.97
2023-02-03T06:12:50.908Z,101506.25
2023-02-03T06:15:18.073Z,101514.00
2023-02-03T06:17:46.424Z,101517.44
2023-02-03T06:20:15.801Z,101512.31
2023-02-03T06:22:42.765Z,101509.72
2023-02-03T06:25:12.839Z,101510.56
2023-02-03T06:27:40.064Z,101517.50
2023-02-03T06:30:07.064Z,101505.41
2023-02-03T06:32:34.158Z,101506.22
2023-02-03T06:35:01.027Z,101505.41
2023-02-03T06:37:27.618Z,101502.81
2023-02-03T06:39:54.390Z,101488.13
2023-02-03T06:42:20.848Z,101494.16
2023-02-03T06:44:49.588Z,101493.31
2023-02-03T06:47:16.534Z,101501.06
2023-02-03T06:49:43.283Z,101509.72
2023-02-03T06:52:09.712Z,101508.84
2023-02-03T06:54:36.983Z,101514.91
2023-02-03T06:57:04.430Z,101503.63
2023-02-03T06:59:31.011Z,101507.94
2023-02-03T07:01:57.770Z,101526.94
2023-02-03T07:04:25.061Z,101526.94
2023-02-03T07:06:51.727Z,101527.81
2023-02-03T07:09:18.141Z,101522.63
2023-02-03T07:11:45.055Z,101526.09
2023-02-03T07:14:11.529Z,101531.25
2023-02-03T07:16:38.236Z,101532.13
2023-02-03T07:19:05.489Z,101544.22
2023-02-03T07:21:32.750Z,101533.81
2023-02-03T07:23:59.277Z,101543.31
2023-02-03T07:26:26.734Z,101548.47
2023-02-03T07:28:54.348Z,101547.63
2023-02-03T07:31:21.923Z,101536.38
2023-02-03T07:33:48.991Z,101545.91
2023-02-03T07:36:16.131Z,101541.56
2023-02-03T07:38:43.090Z,101550.19
2023-02-03T07:41:10.219Z,101561.41
2023-02-03T07:43:36.829Z,101560.56
2023-02-03T07:46:03.717Z,101564.91
2023-02-03T07:48:30.314Z,101559.66
2023-02-03T07:50:56.726Z,101557.94
2023-02-03T07:53:23.593Z,101547.56
2023-02-03T07:55:50.828Z,101545.88
2023-02-03T07:58:18.455Z,101555.34
2023-02-03T08:00:45.466Z,101552.75
2023-02-03T08:03:12.043Z,101551.88
2023-02-03T08:05:38.599Z,101557.94
2023-02-03T08:08:05.406Z,101556.22
2023-02-03T08:10:33.700Z,101570.91
2023-02-03T08:13:00.675Z,101563.97
2023-02-03T08:15:27.817Z,101571.75
2023-02-03T08:17:54.647Z,101554.47
2023-02-03T08:20:21.381Z,101564.84
2023-02-03T08:22:48.394Z,101572.63
2023-02-03T08:25:14.986Z,101573.47
2023-02-03T08:27:41.654Z,101574.34
2023-02-03T08:30:12.360Z,101556.19
2023-02-03T08:32:38.986Z,101565.69
2023-02-03T08:35:07.473Z,101556.19
2023-02-03T08:37:34.269Z,101563.13
2023-02-03T08:40:00.896Z,101563.13
2023-02-03T08:42:28.039Z,101559.66
2023-02-03T08:44:54.697Z,101571.75
2023-02-03T08:47:22.104Z,101564.84
2023-02-03T08:49:48.617Z,101565.72
2023-02-03T08:52:17.429Z,101570.91
2023-02-03T08:54:46.601Z,101555.34
2023-02-03T08:57:13.621Z,101548.41
2023-02-03T08:59:42.327Z,101551.00
2023-02-03T09:02:14.488Z,101556.19
2023-02-03T09:04:41.013Z,101565.69
2023-02-03T09:07:07.574Z,101546.66
2023-02-03T09:09:37.091Z,101549.25
2023-02-03T09:12:06.560Z,101548.34
2023-02-03T09:14:33.456Z,101539.69
2023-02-03T09:17:04.959Z,101542.25
2023-02-03T09:19:32.649Z,101532.66
2023-02-03T09:22:01.217Z,101516.81
2023-02-03T09:24:28.237Z,101519.34
2023-02-03T09:26:56.143Z,101527.97
2023-02-03T09:29:23.264Z,101527.09
2023-02-03T09:31:53.140Z,101524.44
2023-02-03T09:34:21.005Z,101527.03
2023-02-03T09:36:48.394Z,101524.44
2023-02-03T09:39:15.463Z,101514.88
2023-02-03T09:42:09.257Z,101501.88
2023-02-03T09:44:55.926Z,101516.56
2023-02-03T09:47:26.744Z,101502.66
2023-02-03T09:50:06.261Z,101508.66
2023-02-03T09:52:36.856Z,101512.97
2023-02-03T09:55:22.080Z,101510.34
2023-02-03T09:58:03.253Z,101503.44
2023-02-03T10:00:44.625Z,101512.03
2023-02-03T10:03:36.834Z,101515.50
2023-02-03T10:06:03.199Z,101524.16
2023-02-03T10:08:53.036Z,101532.81
2023-02-03T10:11:46.000Z,101544.06
2023-02-03T10:14:44.859Z,101530.97
2023-02-03T10:17:17.609Z,101521.31
2023-02-03T10:19:51.177Z,101524.72
2023-02-03T10:22:21.796Z,101515.13
2023-02-03T10:24:54.962Z,101522.91
2023-02-03T10:27:24.265Z,101526.41
2023-02-03T10:30:24.984Z,101526.44
2023-02-03T10:32:55.916Z,101531.59
2023-02-03T10:35:34.924Z,101528.16
2023-02-03T10:38:01.730Z,101519.53
2023-02-03T10:40:29.425Z,101506.56
2023-02-03T10:43:14.655Z,101503.13
2023-02-03T10:45:41.660Z,101491.88
2023-02-03T10:48:15.661Z,101492.75
2023-02-03T10:50:49.262Z,101489.31
2023-02-03T10:53:23.879Z,101490.16
2023-02-03T10:56:01.385Z,101481.50
2023-02-03T10:58:30.302Z,101484.09
2023-02-03T11:01:17.700Z,101478.22
2023-02-03T11:03:56.508Z,101489.59
2023-02-03T11:06:23.431Z,101479.19
2023-02-03T11:08:51.709Z,101476.69
2023-02-03T11:11:25.025Z,101475.84
2023-02-03T11:14:04.023Z,101484.41
2023-02-03T11:16:33.300Z,101476.56
2023-02-03T11:19:05.600Z,101461.88
2023-02-03T11:21:38.496Z,101473.97
2023-02-03T11:24:22.622Z,101472.22
2023-02-03T11:26:57.827Z,101473.03
2023-02-03T11:29:30.601Z,101472.13
2023-02-03T11:32:01.864Z,101482.53
2023-02-03T11:34:38.120Z,101483.41
2023-02-03T11:37:33.448Z,101492.06
2023-02-03T11:40:12.440Z,101494.66
2023-02-03T11:42:43.714Z,101492.91
2023-02-03T11:45:26.793Z,101493.72
2023-02-03T11:48:35.766Z,101500.59
2023-02-03T11:51:28.395Z,101490.09
2023-02-03T11:54:00.942Z,101484.09
2023-02-03T11:56:45.738Z,101478.91
2023-02-03T11:59:41.449Z,101471.06
2023-02-03T12:02:32.892Z,101459.69
2023-02-03T12:05:13.080Z,101457.06
2023-02-03T12:08:16.216Z,101448.34
2023-02-03T12:11:00.193Z,101437.09
2023-02-03T12:14:31.232Z,101448.25
2023-02-03T12:17:18.353Z,101431.78
2023-02-03T12:20:06.540Z,101428.34
2023-02-03T12:22:48.565Z,101417.91
2023-02-03T12:25:33.568Z,101413.59
2023-02-03T12:28:31.368Z,101424.00
2023-02-03T12:31:30.320Z,101430.91
2023-02-03T12:34:30.277Z,101423.97
2023-02-03T12:37:03.733Z,101423.09
2023-02-03T12:40:00.743Z,101420.47
2023-02-03T12:42:53.601Z,101394.47
2023-02-03T12:45:41.310Z,101421.28
2023-02-03T12:48:17.531Z,101403.94
2023-02-03T12:51:06.230Z,101406.53
2023-02-03T12:53:42.201Z,101400.44
2023-02-03T12:56:13.037Z,101380.47
2023-02-03T12:58:49.868Z,101388.25
2023-02-03T13:01:23.277Z,101376.09
2023-02-03T13:04:05.621Z,101363.09
2023-02-03T13:06:44.676Z,101376.09
2023-02-03T13:09:38.597Z,101366.59
2023-02-03T13:12:10.863Z,101369.19
2023-02-03T13:15:21.485Z,101368.28
2023-02-03T13:18:29.582Z,101398.59
2023-02-03T13:20:56.495Z,101381.28
2023-02-03T13:23:24.141Z,101388.19
2023-02-03T13:26:26.377Z,101375.16
2023-02-03T13:28:53.452Z,101396.00
2023-02-03T13:31:34.897Z,101398.59
2023-02-03T13:34:13.655Z,101397.81
2023-02-03T13:36:59.307Z,101386.53
2023-02-03T13:39:34.873Z,101365.75
2023-02-03T13:42:16.705Z,101364.03
2023-02-03T13:44:46.838Z,101364.03
2023-02-03T13:47:21.451Z,101358.88
2023-02-03T13:49:57.829Z,101342.44
2023-02-03T13:52:34.507Z,101347.69
2023-02-03T13:55:02.337Z,101360.69
2023-02-03T13:57:37.663Z,101348.56
2023-02-03T14:00:26.283Z,101346.81
2023-02-03T14:02:56.293Z,101364.19
2023-02-03T14:05:41.858Z,101371.97
2023-02-03T14:08:27.338Z,101365.91
2023-02-03T14:11:31.871Z,101355.50
2023-02-03T14:14:07.469Z,101365.03
2023-02-03T14:16:35.647Z,101391.88
2023-02-03T14:19:03.096Z,101373.69
2023-02-03T14:21:39.148Z,101370.16
2023-02-03T14:24:09.414Z,101362.34
2023-02-03T14:26:41.189Z,101363.22
2023-02-03T14:29:10.550Z,101360.59
2023-02-03T14:31:59.521Z,101371.84
2023-02-03T14:34:44.128Z,101370.09
2023-02-03T14:37:30.688Z,101368.34
2023-02-03T14:40:23.718Z,101369.19
2023-02-03T14:43:26.686Z,101355.31
2023-02-03T14:46:33.831Z,101368.28
2023-02-03T14:49:26.171Z,101358.72
2023-02-03T14:52:31.237Z,101358.69
2023-02-03T14:55:31.428Z,101361.25
2023-02-03T14:58:07.605Z,101369.06
2023-02-03T15:00:35.770Z,101374.28
2023-02-03T15:03:11.467Z,101376.00
2023-02-03T15:05:44.333Z,101378.63
2023-02-03T15:08:42.159Z,101381.19
2023-02-03T15:11:43.559Z,101371.66
2023-02-03T15:14:28.045Z,101369.06
2023-02-03T15:17:00.360Z,101365.59
2023-02-03T15:19:33.116Z,101376.00
2023-02-03T15:22:00.076Z,101364.75
2023-02-03T15:24:36.949Z,101363.03
2023-02-03T15:27:03.648Z,101354.34
2023-02-03T15:29:33.202Z,101365.66
2023-02-03T15:32:19.766Z,101362.19
2023-02-03T15:34:48.773Z,101373.50
2023-02-03T15:37:30.918Z,101396.88
2023-02-03T15:40:10.018Z,101395.19
2023-02-03T15:42:43.177Z,101400.38
2023-02-03T15:45:22.698Z,101396.03
2023-02-03T15:47:57.909Z,101404.75
2023-02-03T15:50:30.911Z,101399.56
2023-02-03T15:53:04.408Z,101404.78
2023-02-03T15:55:40.798Z,101409.09
2023-02-03T15:58:17.092Z,101409.09
2023-02-03T16:00:50.777Z,101404.81
2023-02-03T16:03:21.405Z,101397.94
2023-02-03T16:05:49.619Z,101395.38
2023-02-03T16:08:36.613Z,101404.91
2023-02-03T16:11:21.404Z,101405.78
2023-02-03T16:13:47.850Z,101407.50
2023-02-03T16:16:20.645Z,101405.78
2023-02-03T16:18:53.019Z,101416.19
2023-02-03T16:21:31.830Z,101412.72
2023-02-03T16:23:59.194Z,101424.00
2023-02-03T16:26:28.552Z,101416.22
2023-02-03T16:29:33.856Z,101430.91
2023-02-03T16:32:20.138Z,101434.38
2023-02-03T16:35:05.768Z,101434.38
2023-02-03T16:38:01.190Z,101437.84
2023-02-03T16:40:46.318Z,101443.91
2023-02-03T16:43:34.038Z,101433.50
2023-02-03T16:46:20.092Z,101429.97
2023-02-03T16:49:05.427Z,101446.41
2023-02-03T16:51:41.456Z,101442.94
2023-02-03T16:54:13.237Z,101443.81
2023-02-03T16:56:40.914Z,101442.97
2023-02-03T16:59:07.474Z,101448.13
2023-02-03T17:01:34.010Z,101438.59
2023-02-03T17:04:00.550Z,101432.53
2023-02-03T17:06:27.184Z,101452.44
2023-02-03T17:08:53.929Z,101453.38
2023-02-03T17:11:23.230Z,101457.78
2023-02-03T17:13:50.787Z,101452.63
2023-02-03T17:16:23.074Z,101463.03
2023-02-03T17:18:51.041Z,101460.38
2023-02-03T17:21:20.330Z,101465.59
2023-02-03T17:23:46.807Z,101455.97
2023-02-03T17:26:13.471Z,101456.03
2023-02-03T17:28:42.864Z,101464.69
2023-02-03T17:31:14.519Z,101458.66
2023-02-03T17:33:41.214Z,101448.31
2023-02-03T17:36:11.651Z,101460.47
2023-02-03T17:55:09.846Z,101467.47
2023-02-03T17:57:39.447Z,101468.34
2023-02-03T18:00:06.936Z,101470.91
2023-02-03T18:02:39.050Z,101472.63
2023-02-03T18:05:05.872Z,101471.75
2023-02-03T18:07:32.294Z,101489.09
2023-02-03T18:09:59.252Z,101481.28
2023-02-03T18:12:26.040Z,101482.16
2023-02-03T18:14:52.930Z,101486.47
2023-02-03T18:17:19.362Z,101478.66
2023-02-03T18:19:49.215Z,101476.91
2023-02-03T18:22:21.767Z,101480.34
2023-02-03T18:24:51.861Z,101458.69
2023-02-03T18:27:19.030Z,101470.78
2023-02-03T18:29:46.593Z,101467.34
2023-02-03T18:32:14.859Z,101470.78
2023-02-03T18:34:41.489Z,101473.38
2023-02-03T18:37:08.809Z,101482.00
2023-02-03T18:39:35.667Z,101469.03
2023-02-03T18:42:02.259Z,101466.44
2023-02-03T18:44:29.124Z,101468.19
2023-02-03T18:46:55.611Z,101469.84
2023-02-03T18:49:22.932Z,101473.31
2023-02-03T18:51:49.433Z,101469.84
2023-02-03T18:54:16.708Z,101475.88
2023-02-03T18:56:43.540Z,101482.81
2023-02-03T18:59:11.187Z,101474.19
2023-02-03T19:01:41.441Z,101475.91
2023-02-03T19:04:08.206Z,101482.84
2023-02-03T19:06:36.065Z,101488.88
2023-02-03T19:09:04.003Z,101483.66
2023-02-03T19:11:31.367Z,101474.13
2023-02-03T19:13:57.915Z,101494.06
2023-02-03T19:16:25.012Z,101493.22
2023-02-03T19:18:51.996Z,101512.25
2023-02-03T19:21:18.733Z,101519.19
2023-02-03T19:23:45.392Z,101514.00
2023-02-03T19:26:12.556Z,101524.38
2023-02-03T19:28:40.114Z,101512.22
2023-02-03T19:31:15.593Z,101525.22
2023-02-03T19:33:42.726Z,101529.56
2023-02-03T19:36:11.026Z,101533.88
2023-02-03T19:38:38.013Z,101531.28
2023-02-03T19:41:04.867Z,101539.13
2023-02-03T19:43:31.946Z,101525.25
2023-02-03T19:45:59.118Z,101535.69
2023-02-03T19:48:25.926Z,101540.00
2023-02-03T19:50:52.634Z,101546.09
2023-02-03T19:53:19.321Z,101543.50
2023-02-03T19:55:46.467Z,101555.66
2023-02-03T19:58:13.934Z,101556.56
2023-02-03T20:00:42.445Z,101559.25
2023-02-03T20:03:10.432Z,101562.72
2023-02-03T20:05:38.202Z,101548.91
2023-02-03T20:08:05.214Z,101548.03
2023-02-03T20:10:32.941Z,101549.78
2023-02-03T20:13:00.936Z,101549.81
2023-02-03T20:15:27.672Z,101556.75
2023-02-03T20:17:54.860Z,101563.69
2023-02-03T20:20:21.825Z,101558.50
2023-02-03T20:22:49.153Z,101560.28
2023-02-03T20:25:16.234Z,101571.53
2023-02-03T20:27:43.323Z,101582.81
2023-02-03T20:30:11.024Z,101581.06
2023-02-03T20:32:38.094Z,101590.63
2023-02-03T20:35:06.408Z,101586.31
2023-02-03T20:37:35.983Z,101589.78
2023-02-03T20:40:06.190Z,101607.97
2023-02-03T20:42:33.893Z,101612.34
2023-02-03T20:45:00.397Z,101613.16
2023-02-03T20:47:27.219Z,101612.28
2023-02-03T20:49:54.922Z,101607.19
2023-02-03T20:52:21.588Z,101618.47
2023-02-03T20:54:48.740Z,101610.69
2023-02-03T20:57:18.714Z,101613.22
2023-02-03T20:59:46.491Z,101614.97
2023-02-03T21:02:53.848Z,101622.06
2023-02-03T21:05:27.568Z,101617.75
2023-02-03T21:07:54.580Z,101619.50
2023-02-03T21:10:24.778Z,101622.97
2023-02-03T21:12:52.050Z,101631.66
2023-02-03T21:15:27.696Z,101635.13
2023-02-03T21:17:55.046Z,101639.44
2023-02-03T21:20:29.086Z,101641.13
2023-02-03T21:22:56.708Z,101633.38
2023-02-03T21:25:34.343Z,101630.84
2023-02-03T21:28:01.152Z,101636.00
2023-02-03T21:30:32.534Z,101623.00
2023-02-03T21:33:00.302Z,101629.94
2023-02-03T21:35:37.823Z,101624.72
2023-02-03T21:38:31.269Z,101626.44
2023-02-03T21:40:59.422Z,101625.56
2023-02-03T21:43:26.111Z,101611.69
2023-02-03T21:45:52.942Z,101627.28
2023-02-03T21:48:23.958Z,101616.88
2023-02-03T21:50:51.073Z,101613.44
2023-02-03T21:53:31.986Z,101616.03
2023-02-03T21:56:16.913Z,101608.25
2023-02-03T21:58:45.002Z,101613.44
2023-02-03T22:01:16.351Z,101615.16
2023-02-03T22:03:47.438Z,101620.38
2023-02-03T22:06:20.222Z,101619.50
2023-02-03T22:08:48.618Z,101637.69
2023-02-03T22:11:16.886Z,101645.50
2023-02-03T22:13:43.384Z,101646.34
2023-02-03T22:16:11.512Z,101650.69
2023-02-03T22:18:39.588Z,101649.81
2023-02-03T22:21:06.264Z,101654.16
2023-02-03T22:23:33.574Z,101657.59
2023-02-03T22:26:00.581Z,101659.31
2023-02-03T22:28:27.168Z,101657.56
2023-02-03T22:30:53.771Z,101653.22
2023-02-03T22:33:20.468Z,101661.03
2023-02-03T22:35:47.021Z,101669.75
2023-02-03T22:38:13.553Z,101685.34
2023-02-03T22:40:40.483Z,101687.03
2023-02-03T22:43:07.017Z,101685.28
2023-02-03T22:45:33.772Z,101682.69
2023-02-03T22:48:00.621Z,101687.88
2023-02-03T22:50:35.401Z,101692.22
2023-02-03T22:53:04.455Z,101681.81
2023-02-03T22:55:31.545Z,101685.28
2023-02-03T22:57:59.365Z,101687.94
2023-02-03T23:00:26.823Z,101679.25
2023-02-03T23:02:54.077Z,101690.50
2023-02-03T23:05:21.314Z,101693.97
2023-02-03T23:07:48.529Z,101696.56
2023-02-03T23:10:21.165Z,101703.50
2023-02-03T23:12:48.530Z,101697.44
2023-02-03T23:15:15.585Z,101703.47
2023-02-03T23:17:42.096Z,101698.28
2023-02-03T23:20:09.767Z,101700.91
2023-02-03T23:22:36.820Z,101695.72
2023-02-03T23:25:04.479Z,101706.97
2023-02-03T23:27:30.953Z,101699.16
2023-02-03T23:29:57.635Z,101685.31
2023-02-03T23:32:24.212Z,101696.56
2023-02-03T23:35:09.434Z,101687.00
2023-02-03T23:37:36.244Z,101693.94
2023-02-03T23:40:04.355Z,101700.00
2023-02-03T23:42:31.374Z,101696.47
2023-02-03T23:44:59.081Z,101695.59
2023-02-03T23:47:25.686Z,101690.41
2023-02-03T23:49:52.482Z,101701.69
2023-02-03T23:52:19.141Z,101701.72
2023-02-03T23:54:46.192Z,101704.34
2023-02-03T23:57:13.196Z,101698.25
2023-02-03T23:59:40.144Z,101705.13
